sensor_id;sensor_type;location;lat;lon;timestamp;P1;durP1;ratioP1;P2;durP2;ratioP2
47764;SDS011;33529;49.242;8.670;2023-08-12T00:01:34;7.55;;;5.40;;
47764;SDS011;33529;49.242;8.670;2023-08-12T00:04:01;5.95;;;4.88;;
47764;SDS011;33529;49.242;8.670;2023-08-12T00:06:28;9.48;;;5.35;;
47764;SDS011;33529;49.242;8.670;2023-08-12T00:08:55;8.05;;;4.95;;
47764;SDS011;33529;49.242;8.670;2023-08-12T00:11:21;6.72;;;5.57;;
47764;SDS011;33529;49.242;8.670;2023-08-12T00:13:48;6.53;;;4.97;;
47764;SDS011;33529;49.242;8.670;2023-08-12T00:16:15;7.28;;;4.78;;
47764;SDS011;33529;49.242;8.670;2023-08-12T00:18:42;6.15;;;4.82;;
47764;SDS011;33529;49.242;8.670;2023-08-12T00:21:09;6.13;;;5.20;;
47764;SDS011;33529;49.242;8.670;2023-08-12T00:23:37;7.75;;;5.38;;
47764;SDS011;33529;49.242;8.670;2023-08-12T00:26:10;7.22;;;5.07;;
47764;SDS011;33529;49.242;8.670;2023-08-12T00:28:39;7.60;;;5.15;;
47764;SDS011;33529;49.242;8.670;2023-08-12T00:31:06;7.88;;;5.18;;
47764;SDS011;33529;49.242;8.670;2023-08-12T00:33:33;6.20;;;5.30;;
47764;SDS011;33529;49.242;8.670;2023-08-12T00:36:00;6.38;;;4.90;;
47764;SDS011;33529;49.242;8.670;2023-08-12T00:38:27;7.70;;;5.13;;
47764;SDS011;33529;49.242;8.670;2023-08-12T00:40:54;7.90;;;5.53;;
47764;SDS011;33529;49.242;8.670;2023-08-12T00:43:21;8.82;;;5.50;;
47764;SDS011;33529;49.242;8.670;2023-08-12T00:45:48;7.72;;;5.15;;
47764;SDS011;33529;49.242;8.670;2023-08-12T00:48:16;6.53;;;5.40;;
47764;SDS011;33529;49.242;8.670;2023-08-12T00:50:43;7.43;;;4.97;;
47764;SDS011;33529;49.242;8.670;2023-08-12T00:53:12;6.07;;;4.85;;
47764;SDS011;33529;49.242;8.670;2023-08-12T00:55:41;6.50;;;5.50;;
47764;SDS011;33529;49.242;8.670;2023-08-12T00:58:08;6.68;;;5.07;;
47764;SDS011;33529;49.242;8.670;2023-08-12T01:00:35;7.57;;;5.22;;
47764;SDS011;33529;49.242;8.670;2023-08-12T01:03:02;8.05;;;5.07;;
47764;SDS011;33529;49.242;8.670;2023-08-12T01:05:31;8.43;;;5.35;;
47764;SDS011;33529;49.242;8.670;2023-08-12T01:07:59;6.68;;;5.20;;
47764;SDS011;33529;49.242;8.670;2023-08-12T01:10:28;7.63;;;5.15;;
47764;SDS011;33529;49.242;8.670;2023-08-12T01:15:51;7.25;;;5.82;;
47764;SDS011;33529;49.242;8.670;2023-08-12T01:20:50;6.63;;;5.30;;
47764;SDS011;33529;49.242;8.670;2023-08-12T01:23:17;6.43;;;5.30;;
47764;SDS011;33529;49.242;8.670;2023-08-12T01:25:46;6.43;;;4.72;;
47764;SDS011;33529;49.242;8.670;2023-08-12T01:28:13;6.15;;;4.57;;
47764;SDS011;33529;49.242;8.670;2023-08-12T01:30:46;8.38;;;5.50;;
47764;SDS011;33529;49.242;8.670;2023-08-12T01:33:28;6.55;;;5.25;;
47764;SDS011;33529;49.242;8.670;2023-08-12T01:36:18;7.53;;;5.20;;
47764;SDS011;33529;49.242;8.670;2023-08-12T01:38:46;7.05;;;5.50;;
47764;SDS011;33529;49.242;8.670;2023-08-12T01:41:17;7.50;;;5.88;;
47764;SDS011;33529;49.242;8.670;2023-08-12T01:43:45;6.38;;;4.88;;
47764;SDS011;33529;49.242;8.670;2023-08-12T01:46:12;6.78;;;5.13;;
47764;SDS011;33529;49.242;8.670;2023-08-12T01:48:40;6.28;;;5.05;;
47764;SDS011;33529;49.242;8.670;2023-08-12T01:51:07;6.50;;;5.45;;
47764;SDS011;33529;49.242;8.670;2023-08-12T01:53:33;5.90;;;4.78;;
47764;SDS011;33529;49.242;8.670;2023-08-12T01:56:00;6.18;;;5.03;;
47764;SDS011;33529;49.242;8.670;2023-08-12T01:58:27;7.68;;;5.57;;
47764;SDS011;33529;49.242;8.670;2023-08-12T02:00:54;6.43;;;5.45;;
47764;SDS011;33529;49.242;8.670;2023-08-12T02:03:21;6.28;;;5.20;;
47764;SDS011;33529;49.242;8.670;2023-08-12T02:05:48;6.50;;;5.28;;
47764;SDS011;33529;49.242;8.670;2023-08-12T02:08:15;6.97;;;5.15;;
47764;SDS011;33529;49.242;8.670;2023-08-12T02:10:42;7.90;;;5.18;;
47764;SDS011;33529;49.242;8.670;2023-08-12T02:13:09;6.47;;;4.60;;
47764;SDS011;33529;49.242;8.670;2023-08-12T02:15:36;8.25;;;5.53;;
47764;SDS011;33529;49.242;8.670;2023-08-12T02:18:03;10.95;;;5.88;;
47764;SDS011;33529;49.242;8.670;2023-08-12T02:20:30;7.25;;;4.97;;
47764;SDS011;33529;49.242;8.670;2023-08-12T02:23:00;6.13;;;4.97;;
47764;SDS011;33529;49.242;8.670;2023-08-12T02:25:28;6.63;;;5.22;;
47764;SDS011;33529;49.242;8.670;2023-08-12T02:27:55;6.18;;;5.03;;
47764;SDS011;33529;49.242;8.670;2023-08-12T02:30:21;6.10;;;5.32;;
47764;SDS011;33529;49.242;8.670;2023-08-12T02:32:48;6.88;;;5.00;;
47764;SDS011;33529;49.242;8.670;2023-08-12T02:35:17;6.88;;;4.80;;
47764;SDS011;33529;49.242;8.670;2023-08-12T02:37:44;8.02;;;5.05;;
47764;SDS011;33529;49.242;8.670;2023-08-12T02:40:11;7.63;;;4.88;;
47764;SDS011;33529;49.242;8.670;2023-08-12T02:42:38;6.65;;;5.03;;
47764;SDS011;33529;49.242;8.670;2023-08-12T02:45:05;6.10;;;5.20;;
47764;SDS011;33529;49.242;8.670;2023-08-12T02:47:32;8.50;;;5.38;;
47764;SDS011;33529;49.242;8.670;2023-08-12T02:49:59;6.70;;;5.03;;
47764;SDS011;33529;49.242;8.670;2023-08-12T02:52:26;5.72;;;4.85;;
47764;SDS011;33529;49.242;8.670;2023-08-12T02:54:53;7.32;;;5.13;;
47764;SDS011;33529;49.242;8.670;2023-08-12T02:57:21;7.20;;;5.07;;
47764;SDS011;33529;49.242;8.670;2023-08-12T02:59:48;6.70;;;5.10;;
47764;SDS011;33529;49.242;8.670;2023-08-12T03:02:15;5.45;;;4.82;;
47764;SDS011;33529;49.242;8.670;2023-08-12T03:04:42;7.78;;;4.82;;
47764;SDS011;33529;49.242;8.670;2023-08-12T03:07:09;5.88;;;4.70;;
47764;SDS011;33529;49.242;8.670;2023-08-12T03:09:37;6.68;;;5.35;;
47764;SDS011;33529;49.242;8.670;2023-08-12T03:12:04;5.45;;;4.63;;
47764;SDS011;33529;49.242;8.670;2023-08-12T03:14:31;6.68;;;5.10;;
47764;SDS011;33529;49.242;8.670;2023-08-12T03:17:00;10.70;;;5.60;;
47764;SDS011;33529;49.242;8.670;2023-08-12T03:19:28;5.85;;;5.25;;
47764;SDS011;33529;49.242;8.670;2023-08-12T03:21:56;6.30;;;5.40;;
47764;SDS011;33529;49.242;8.670;2023-08-12T03:24:23;7.97;;;5.53;;
47764;SDS011;33529;49.242;8.670;2023-08-12T03:26:50;8.70;;;6.10;;
47764;SDS011;33529;49.242;8.670;2023-08-12T03:29:17;6.07;;;5.20;;
47764;SDS011;33529;49.242;8.670;2023-08-12T03:31:46;5.60;;;4.95;;
47764;SDS011;33529;49.242;8.670;2023-08-12T03:34:14;5.72;;;5.15;;
47764;SDS011;33529;49.242;8.670;2023-08-12T03:36:42;6.15;;;4.97;;
47764;SDS011;33529;49.242;8.670;2023-08-12T03:39:10;6.13;;;4.88;;
47764;SDS011;33529;49.242;8.670;2023-08-12T03:41:37;7.03;;;5.68;;
47764;SDS011;33529;49.242;8.670;2023-08-12T03:44:05;6.30;;;4.85;;
47764;SDS011;33529;49.242;8.670;2023-08-12T03:46:32;6.32;;;4.93;;
47764;SDS011;33529;49.242;8.670;2023-08-12T03:49:00;7.93;;;5.22;;
47764;SDS011;33529;49.242;8.670;2023-08-12T03:51:28;8.32;;;5.40;;
47764;SDS011;33529;49.242;8.670;2023-08-12T03:53:55;5.70;;;4.78;;
47764;SDS011;33529;49.242;8.670;2023-08-12T03:56:23;6.47;;;4.97;;
47764;SDS011;33529;49.242;8.670;2023-08-12T03:58:50;6.05;;;5.05;;
47764;SDS011;33529;49.242;8.670;2023-08-12T04:01:18;6.65;;;5.25;;
47764;SDS011;33529;49.242;8.670;2023-08-12T04:03:45;6.47;;;4.85;;
47764;SDS011;33529;49.242;8.670;2023-08-12T04:06:12;6.55;;;4.90;;
47764;SDS011;33529;49.242;8.670;2023-08-12T04:08:39;7.70;;;4.97;;
47764;SDS011;33529;49.242;8.670;2023-08-12T04:11:06;6.70;;;5.22;;
47764;SDS011;33529;49.242;8.670;2023-08-12T04:13:33;6.82;;;5.20;;
47764;SDS011;33529;49.242;8.670;2023-08-12T04:16:00;6.10;;;5.10;;
47764;SDS011;33529;49.242;8.670;2023-08-12T04:18:27;6.07;;;5.32;;
47764;SDS011;33529;49.242;8.670;2023-08-12T04:20:53;8.23;;;5.75;;
47764;SDS011;33529;49.242;8.670;2023-08-12T04:23:22;6.65;;;4.93;;
47764;SDS011;33529;49.242;8.670;2023-08-12T04:25:49;7.25;;;5.70;;
47764;SDS011;33529;49.242;8.670;2023-08-12T04:28:18;5.38;;;4.70;;
47764;SDS011;33529;49.242;8.670;2023-08-12T04:30:48;7.30;;;5.38;;
47764;SDS011;33529;49.242;8.670;2023-08-12T04:33:19;8.02;;;5.32;;
47764;SDS011;33529;49.242;8.670;2023-08-12T04:35:47;5.60;;;5.00;;
47764;SDS011;33529;49.242;8.670;2023-08-12T04:38:16;7.78;;;5.00;;
47764;SDS011;33529;49.242;8.670;2023-08-12T04:40:44;6.40;;;5.38;;
47764;SDS011;33529;49.242;8.670;2023-08-12T04:43:12;6.05;;;4.88;;
47764;SDS011;33529;49.242;8.670;2023-08-12T04:45:40;7.45;;;4.68;;
47764;SDS011;33529;49.242;8.670;2023-08-12T04:48:10;5.80;;;5.10;;
47764;SDS011;33529;49.242;8.670;2023-08-12T04:50:37;5.90;;;4.40;;
47764;SDS011;33529;49.242;8.670;2023-08-12T04:53:05;6.13;;;5.28;;
47764;SDS011;33529;49.242;8.670;2023-08-12T04:55:33;7.35;;;5.07;;
47764;SDS011;33529;49.242;8.670;2023-08-12T04:58:01;5.97;;;4.47;;
47764;SDS011;33529;49.242;8.670;2023-08-12T05:00:29;5.30;;;4.78;;
47764;SDS011;33529;49.242;8.670;2023-08-12T05:02:57;6.03;;;5.43;;
47764;SDS011;33529;49.242;8.670;2023-08-12T05:05:25;6.78;;;4.53;;
47764;SDS011;33529;49.242;8.670;2023-08-12T05:07:53;6.18;;;5.00;;
47764;SDS011;33529;49.242;8.670;2023-08-12T05:10:19;5.80;;;5.15;;
47764;SDS011;33529;49.242;8.670;2023-08-12T05:12:46;6.22;;;4.90;;
47764;SDS011;33529;49.242;8.670;2023-08-12T05:15:15;6.03;;;5.30;;
47764;SDS011;33529;49.242;8.670;2023-08-12T05:17:42;5.55;;;5.05;;
47764;SDS011;33529;49.242;8.670;2023-08-12T05:20:10;5.93;;;4.80;;
47764;SDS011;33529;49.242;8.670;2023-08-12T05:22:37;5.45;;;4.88;;
47764;SDS011;33529;49.242;8.670;2023-08-12T05:25:05;5.78;;;5.10;;
47764;SDS011;33529;49.242;8.670;2023-08-12T05:27:32;5.93;;;5.22;;
47764;SDS011;33529;49.242;8.670;2023-08-12T05:29:59;5.95;;;5.00;;
47764;SDS011;33529;49.242;8.670;2023-08-12T05:32:26;6.55;;;4.93;;
47764;SDS011;33529;49.242;8.670;2023-08-12T05:34:53;8.85;;;5.13;;
47764;SDS011;33529;49.242;8.670;2023-08-12T05:37:21;5.15;;;4.65;;
47764;SDS011;33529;49.242;8.670;2023-08-12T05:39:48;7.53;;;4.90;;
47764;SDS011;33529;49.242;8.670;2023-08-12T05:42:15;5.75;;;4.40;;
47764;SDS011;33529;49.242;8.670;2023-08-12T05:44:42;5.40;;;4.70;;
47764;SDS011;33529;49.242;8.670;2023-08-12T05:47:09;7.50;;;5.50;;
47764;SDS011;33529;49.242;8.670;2023-08-12T05:49:36;5.80;;;5.20;;
47764;SDS011;33529;49.242;8.670;2023-08-12T05:52:03;6.03;;;5.40;;
47764;SDS011;33529;49.242;8.670;2023-08-12T05:54:30;6.60;;;5.70;;
47764;SDS011;33529;49.242;8.670;2023-08-12T05:56:58;6.45;;;5.20;;
47764;SDS011;33529;49.242;8.670;2023-08-12T05:59:25;6.22;;;5.45;;
47764;SDS011;33529;49.242;8.670;2023-08-12T06:01:53;6.82;;;5.00;;
47764;SDS011;33529;49.242;8.670;2023-08-12T06:04:20;6.70;;;5.45;;
47764;SDS011;33529;49.242;8.670;2023-08-12T06:06:47;6.82;;;5.03;;
47764;SDS011;33529;49.242;8.670;2023-08-12T06:09:14;8.02;;;5.40;;
47764;SDS011;33529;49.242;8.670;2023-08-12T06:11:41;7.63;;;5.28;;
47764;SDS011;33529;49.242;8.670;2023-08-12T06:14:07;6.25;;;5.10;;
47764;SDS011;33529;49.242;8.670;2023-08-12T06:16:35;10.10;;;5.00;;
47764;SDS011;33529;49.242;8.670;2023-08-12T06:19:01;8.73;;;5.50;;
47764;SDS011;33529;49.242;8.670;2023-08-12T06:21:28;6.40;;;5.80;;
47764;SDS011;33529;49.242;8.670;2023-08-12T06:23:55;5.88;;;4.53;;
47764;SDS011;33529;49.242;8.670;2023-08-12T06:26:22;7.10;;;5.68;;
47764;SDS011;33529;49.242;8.670;2023-08-12T06:28:49;8.02;;;5.43;;
47764;SDS011;33529;49.242;8.670;2023-08-12T06:31:17;7.45;;;4.93;;
47764;SDS011;33529;49.242;8.670;2023-08-12T06:33:44;7.53;;;5.10;;
47764;SDS011;33529;49.242;8.670;2023-08-12T06:36:10;5.30;;;4.50;;
47764;SDS011;33529;49.242;8.670;2023-08-12T06:38:37;5.80;;;4.90;;
47764;SDS011;33529;49.242;8.670;2023-08-12T06:41:04;6.85;;;5.65;;
47764;SDS011;33529;49.242;8.670;2023-08-12T06:43:31;5.47;;;4.65;;
47764;SDS011;33529;49.242;8.670;2023-08-12T06:45:58;6.57;;;4.75;;
47764;SDS011;33529;49.242;8.670;2023-08-12T06:48:24;6.55;;;5.57;;
47764;SDS011;33529;49.242;8.670;2023-08-12T06:50:55;8.60;;;6.50;;
47764;SDS011;33529;49.242;8.670;2023-08-12T06:53:22;6.60;;;5.90;;
47764;SDS011;33529;49.242;8.670;2023-08-12T06:55:49;6.40;;;5.40;;
47764;SDS011;33529;49.242;8.670;2023-08-12T06:58:16;7.60;;;5.20;;
47764;SDS011;33529;49.242;8.670;2023-08-12T07:00:43;7.25;;;5.40;;
47764;SDS011;33529;49.242;8.670;2023-08-12T07:03:10;7.60;;;4.70;;
47764;SDS011;33529;49.242;8.670;2023-08-12T07:05:37;6.93;;;5.90;;
47764;SDS011;33529;49.242;8.670;2023-08-12T07:08:04;6.93;;;5.35;;
47764;SDS011;33529;49.242;8.670;2023-08-12T07:10:31;7.05;;;5.25;;
47764;SDS011;33529;49.242;8.670;2023-08-12T07:12:58;6.85;;;4.95;;
47764;SDS011;33529;49.242;8.670;2023-08-12T07:15:25;7.53;;;5.75;;
47764;SDS011;33529;49.242;8.670;2023-08-12T07:17:51;6.47;;;5.38;;
47764;SDS011;33529;49.242;8.670;2023-08-12T07:20:18;7.88;;;5.70;;
47764;SDS011;33529;49.242;8.670;2023-08-12T07:22:45;7.70;;;6.15;;
47764;SDS011;33529;49.242;8.670;2023-08-12T07:25:12;7.40;;;6.15;;
47764;SDS011;33529;49.242;8.670;2023-08-12T07:27:39;6.57;;;5.88;;
47764;SDS011;33529;49.242;8.670;2023-08-12T07:30:06;8.13;;;6.15;;
47764;SDS011;33529;49.242;8.670;2023-08-12T07:32:35;8.93;;;6.78;;
47764;SDS011;33529;49.242;8.670;2023-08-12T07:35:03;7.28;;;6.40;;
47764;SDS011;33529;49.242;8.670;2023-08-12T07:37:32;8.63;;;6.28;;
47764;SDS011;33529;49.242;8.670;2023-08-12T07:39:59;7.60;;;6.80;;
47764;SDS011;33529;49.242;8.670;2023-08-12T07:42:26;7.03;;;6.32;;
47764;SDS011;33529;49.242;8.670;2023-08-12T07:44:53;7.10;;;6.43;;
47764;SDS011;33529;49.242;8.670;2023-08-12T07:47:19;10.38;;;7.18;;
47764;SDS011;33529;49.242;8.670;2023-08-12T07:49:46;10.45;;;6.32;;
47764;SDS011;33529;49.242;8.670;2023-08-12T07:52:13;7.70;;;6.20;;
47764;SDS011;33529;49.242;8.670;2023-08-12T07:54:40;7.70;;;6.90;;
47764;SDS011;33529;49.242;8.670;2023-08-12T07:57:07;6.53;;;5.82;;
47764;SDS011;33529;49.242;8.670;2023-08-12T07:59:33;9.18;;;6.13;;
47764;SDS011;33529;49.242;8.670;2023-08-12T08:02:00;6.43;;;5.72;;
47764;SDS011;33529;49.242;8.670;2023-08-12T08:04:27;8.15;;;6.07;;
47764;SDS011;33529;49.242;8.670;2023-08-12T08:06:54;10.23;;;5.63;;
47764;SDS011;33529;49.242;8.670;2023-08-12T08:09:21;6.72;;;5.95;;
47764;SDS011;33529;49.242;8.670;2023-08-12T08:11:48;8.23;;;5.60;;
47764;SDS011;33529;49.242;8.670;2023-08-12T08:14:15;9.40;;;5.78;;
47764;SDS011;33529;49.242;8.670;2023-08-12T08:16:41;6.22;;;5.63;;
47764;SDS011;33529;49.242;8.670;2023-08-12T08:19:08;7.43;;;6.00;;
47764;SDS011;33529;49.242;8.670;2023-08-12T08:21:38;6.47;;;5.70;;
47764;SDS011;33529;49.242;8.670;2023-08-12T08:24:05;7.20;;;5.93;;
47764;SDS011;33529;49.242;8.670;2023-08-12T08:26:32;7.05;;;5.90;;
47764;SDS011;33529;49.242;8.670;2023-08-12T08:28:59;9.23;;;5.90;;
47764;SDS011;33529;49.242;8.670;2023-08-12T08:31:28;6.15;;;5.55;;
47764;SDS011;33529;49.242;8.670;2023-08-12T08:33:56;7.35;;;6.53;;
47764;SDS011;33529;49.242;8.670;2023-08-12T08:36:22;6.90;;;5.55;;
47764;SDS011;33529;49.242;8.670;2023-08-12T08:38:50;7.95;;;5.80;;
47764;SDS011;33529;49.242;8.670;2023-08-12T08:41:16;7.50;;;6.35;;
47764;SDS011;33529;49.242;8.670;2023-08-12T08:43:43;6.75;;;5.53;;
47764;SDS011;33529;49.242;8.670;2023-08-12T08:46:14;7.23;;;5.60;;
47764;SDS011;33529;49.242;8.670;2023-08-12T08:48:42;7.03;;;5.97;;
47764;SDS011;33529;49.242;8.670;2023-08-12T08:51:10;8.07;;;5.65;;
47764;SDS011;33529;49.242;8.670;2023-08-12T08:53:38;8.07;;;6.00;;
47764;SDS011;33529;49.242;8.670;2023-08-12T08:56:08;6.10;;;5.50;;
47764;SDS011;33529;49.242;8.670;2023-08-12T08:58:41;9.07;;;6.18;;
47764;SDS011;33529;49.242;8.670;2023-08-12T09:01:08;8.25;;;5.63;;
47764;SDS011;33529;49.242;8.670;2023-08-12T09:03:36;6.60;;;5.20;;
47764;SDS011;33529;49.242;8.670;2023-08-12T09:06:04;8.45;;;5.72;;
47764;SDS011;33529;49.242;8.670;2023-08-12T09:08:32;8.35;;;6.20;;
47764;SDS011;33529;49.242;8.670;2023-08-12T09:11:00;7.70;;;5.88;;
47764;SDS011;33529;49.242;8.670;2023-08-12T09:13:28;7.32;;;5.38;;
47764;SDS011;33529;49.242;8.670;2023-08-12T09:15:55;9.20;;;6.32;;
47764;SDS011;33529;49.242;8.670;2023-08-12T09:18:23;9.38;;;6.25;;
47764;SDS011;33529;49.242;8.670;2023-08-12T09:20:51;8.38;;;6.05;;
47764;SDS011;33529;49.242;8.670;2023-08-12T09:23:19;7.00;;;5.50;;
47764;SDS011;33529;49.242;8.670;2023-08-12T09:25:46;6.20;;;5.60;;
47764;SDS011;33529;49.242;8.670;2023-08-12T09:28:12;8.13;;;5.80;;
47764;SDS011;33529;49.242;8.670;2023-08-12T09:30:39;7.22;;;5.45;;
47764;SDS011;33529;49.242;8.670;2023-08-12T09:33:07;7.78;;;5.78;;
47764;SDS011;33529;49.242;8.670;2023-08-12T09:35:36;7.00;;;5.57;;
47764;SDS011;33529;49.242;8.670;2023-08-12T09:38:04;9.25;;;5.57;;
47764;SDS011;33529;49.242;8.670;2023-08-12T09:40:33;7.18;;;5.70;;
47764;SDS011;33529;49.242;8.670;2023-08-12T09:43:01;8.10;;;6.20;;
47764;SDS011;33529;49.242;8.670;2023-08-12T09:45:34;6.90;;;6.20;;
47764;SDS011;33529;49.242;8.670;2023-08-12T09:48:01;8.27;;;5.82;;
47764;SDS011;33529;49.242;8.670;2023-08-12T09:50:29;6.72;;;5.47;;
47764;SDS011;33529;49.242;8.670;2023-08-12T09:52:55;5.95;;;5.28;;
47764;SDS011;33529;49.242;8.670;2023-08-12T09:55:23;6.90;;;6.20;;
47764;SDS011;33529;49.242;8.670;2023-08-12T09:57:51;6.10;;;5.50;;
47764;SDS011;33529;49.242;8.670;2023-08-12T10:00:19;7.18;;;6.18;;
47764;SDS011;33529;49.242;8.670;2023-08-12T10:02:48;6.40;;;5.70;;
47764;SDS011;33529;49.242;8.670;2023-08-12T10:05:22;6.07;;;5.38;;
47764;SDS011;33529;49.242;8.670;2023-08-12T10:07:52;6.53;;;5.22;;
47764;SDS011;33529;49.242;8.670;2023-08-12T10:10:23;7.57;;;5.82;;
47764;SDS011;33529;49.242;8.670;2023-08-12T10:12:51;7.65;;;5.28;;
47764;SDS011;33529;49.242;8.670;2023-08-12T10:15:18;7.25;;;5.90;;
47764;SDS011;33529;49.242;8.670;2023-08-12T10:17:46;7.13;;;5.70;;
47764;SDS011;33529;49.242;8.670;2023-08-12T10:20:14;7.88;;;5.72;;
47764;SDS011;33529;49.242;8.670;2023-08-12T10:22:46;6.50;;;5.82;;
47764;SDS011;33529;49.242;8.670;2023-08-12T10:25:14;7.43;;;6.43;;
47764;SDS011;33529;49.242;8.670;2023-08-12T10:27:41;9.40;;;6.25;;
47764;SDS011;33529;49.242;8.670;2023-08-12T10:30:08;6.03;;;5.35;;
47764;SDS011;33529;49.242;8.670;2023-08-12T10:32:36;6.75;;;5.45;;
47764;SDS011;33529;49.242;8.670;2023-08-12T10:35:03;7.35;;;5.43;;
47764;SDS011;33529;49.242;8.670;2023-08-12T10:37:32;9.07;;;6.13;;
47764;SDS011;33529;49.242;8.670;2023-08-12T10:40:03;6.63;;;5.88;;
47764;SDS011;33529;49.242;8.670;2023-08-12T10:42:43;5.70;;;5.05;;
47764;SDS011;33529;49.242;8.670;2023-08-12T10:45:13;5.90;;;5.30;;
47764;SDS011;33529;49.242;8.670;2023-08-12T10:50:48;6.72;;;6.03;;
47764;SDS011;33529;49.242;8.670;2023-08-12T10:55:54;6.22;;;5.38;;
47764;SDS011;33529;49.242;8.670;2023-08-12T10:58:29;6.15;;;5.22;;
47764;SDS011;33529;49.242;8.670;2023-08-12T11:01:00;6.45;;;5.45;;
47764;SDS011;33529;49.242;8.670;2023-08-12T11:03:31;6.30;;;4.80;;
47764;SDS011;33529;49.242;8.670;2023-08-12T11:06:04;6.47;;;5.70;;
47764;SDS011;33529;49.242;8.670;2023-08-12T11:08:30;5.93;;;5.30;;
47764;SDS011;33529;49.242;8.670;2023-08-12T11:10:59;6.13;;;5.38;;
47764;SDS011;33529;49.242;8.670;2023-08-12T11:13:28;6.10;;;5.15;;
47764;SDS011;33529;49.242;8.670;2023-08-12T11:16:09;5.90;;;5.30;;
47764;SDS011;33529;49.242;8.670;2023-08-12T11:18:36;6.15;;;5.32;;
47764;SDS011;33529;49.242;8.670;2023-08-12T11:21:03;6.55;;;5.20;;
47764;SDS011;33529;49.242;8.670;2023-08-12T11:23:31;7.25;;;5.25;;
47764;SDS011;33529;49.242;8.670;2023-08-12T11:25:58;7.07;;;5.38;;
47764;SDS011;33529;49.242;8.670;2023-08-12T11:28:27;7.57;;;5.75;;
47764;SDS011;33529;49.242;8.670;2023-08-12T11:30:54;9.57;;;6.80;;
47764;SDS011;33529;49.242;8.670;2023-08-12T11:33:21;10.30;;;6.43;;
47764;SDS011;33529;49.242;8.670;2023-08-12T11:35:50;7.68;;;6.85;;
47764;SDS011;33529;49.242;8.670;2023-08-12T11:38:17;11.35;;;7.57;;
47764;SDS011;33529;49.242;8.670;2023-08-12T11:40:44;10.55;;;7.35;;
47764;SDS011;33529;49.242;8.670;2023-08-12T11:43:12;11.43;;;7.68;;
47764;SDS011;33529;49.242;8.670;2023-08-12T11:45:41;9.35;;;8.38;;
47764;SDS011;33529;49.242;8.670;2023-08-12T11:48:09;10.57;;;8.30;;
47764;SDS011;33529;49.242;8.670;2023-08-12T11:50:36;8.82;;;6.53;;
47764;SDS011;33529;49.242;8.670;2023-08-12T11:53:03;8.93;;;7.75;;
47764;SDS011;33529;49.242;8.670;2023-08-12T11:55:30;7.68;;;6.60;;
47764;SDS011;33529;49.242;8.670;2023-08-12T11:57:57;8.73;;;6.28;;
47764;SDS011;33529;49.242;8.670;2023-08-12T12:00:24;6.72;;;6.00;;
47764;SDS011;33529;49.242;8.670;2023-08-12T12:02:52;7.78;;;5.35;;
47764;SDS011;33529;49.242;8.670;2023-08-12T12:05:22;5.57;;;4.53;;
47764;SDS011;33529;49.242;8.670;2023-08-12T12:07:50;5.43;;;4.28;;
47764;SDS011;33529;49.242;8.670;2023-08-12T12:10:19;4.90;;;3.28;;
47764;SDS011;33529;49.242;8.670;2023-08-12T12:12:48;6.85;;;3.28;;
47764;SDS011;33529;49.242;8.670;2023-08-12T12:15:15;5.18;;;3.78;;
47764;SDS011;33529;49.242;8.670;2023-08-12T12:17:42;4.68;;;3.72;;
47764;SDS011;33529;49.242;8.670;2023-08-12T12:20:12;3.92;;;2.72;;
47764;SDS011;33529;49.242;8.670;2023-08-12T12:22:41;4.40;;;2.78;;
47764;SDS011;33529;49.242;8.670;2023-08-12T12:25:10;5.95;;;3.00;;
47764;SDS011;33529;49.242;8.670;2023-08-12T12:27:38;6.15;;;3.17;;
47764;SDS011;33529;49.242;8.670;2023-08-12T12:30:12;5.10;;;2.70;;
47764;SDS011;33529;49.242;8.670;2023-08-12T12:32:41;5.07;;;2.58;;
47764;SDS011;33529;49.242;8.670;2023-08-12T12:35:08;4.55;;;3.20;;
47764;SDS011;33529;49.242;8.670;2023-08-12T12:37:35;4.10;;;2.97;;
47764;SDS011;33529;49.242;8.670;2023-08-12T12:40:02;6.72;;;3.20;;
47764;SDS011;33529;49.242;8.670;2023-08-12T12:42:32;6.70;;;3.22;;
47764;SDS011;33529;49.242;8.670;2023-08-12T12:44:59;4.68;;;2.70;;
47764;SDS011;33529;49.242;8.670;2023-08-12T12:47:25;4.55;;;3.00;;
47764;SDS011;33529;49.242;8.670;2023-08-12T12:49:52;3.55;;;2.72;;
47764;SDS011;33529;49.242;8.670;2023-08-12T12:52:19;7.03;;;2.97;;
47764;SDS011;33529;49.242;8.670;2023-08-12T12:54:46;5.35;;;3.35;;
47764;SDS011;33529;49.242;8.670;2023-08-12T12:57:13;3.58;;;2.65;;
47764;SDS011;33529;49.242;8.670;2023-08-12T12:59:40;4.15;;;2.55;;
47764;SDS011;33529;49.242;8.670;2023-08-12T13:02:06;3.53;;;2.35;;
47764;SDS011;33529;49.242;8.670;2023-08-12T13:04:34;3.20;;;2.50;;
47764;SDS011;33529;49.242;8.670;2023-08-12T13:07:00;3.92;;;2.33;;
47764;SDS011;33529;49.242;8.670;2023-08-12T13:09:27;4.47;;;3.00;;
47764;SDS011;33529;49.242;8.670;2023-08-12T13:11:54;5.25;;;2.92;;
47764;SDS011;33529;49.242;8.670;2023-08-12T13:14:23;4.57;;;2.92;;
47764;SDS011;33529;49.242;8.670;2023-08-12T13:16:50;4.65;;;2.60;;
47764;SDS011;33529;49.242;8.670;2023-08-12T13:19:18;4.80;;;2.90;;
47764;SDS011;33529;49.242;8.670;2023-08-12T13:21:45;4.32;;;2.88;;
47764;SDS011;33529;49.242;8.670;2023-08-12T13:24:12;4.53;;;2.65;;
47764;SDS011;33529;49.242;8.670;2023-08-12T13:26:39;3.65;;;2.20;;
47764;SDS011;33529;49.242;8.670;2023-08-12T13:29:06;4.07;;;2.58;;
47764;SDS011;33529;49.242;8.670;2023-08-12T13:31:33;4.30;;;2.55;;
47764;SDS011;33529;49.242;8.670;2023-08-12T13:34:00;4.38;;;2.58;;
47764;SDS011;33529;49.242;8.670;2023-08-12T13:36:27;4.53;;;3.00;;
47764;SDS011;33529;49.242;8.670;2023-08-12T13:38:53;4.38;;;3.20;;
47764;SDS011;33529;49.242;8.670;2023-08-12T13:41:21;4.72;;;3.15;;
47764;SDS011;33529;49.242;8.670;2023-08-12T13:43:48;5.43;;;3.22;;
47764;SDS011;33529;49.242;8.670;2023-08-12T13:46:15;4.05;;;3.00;;
47764;SDS011;33529;49.242;8.670;2023-08-12T13:48:42;5.50;;;2.88;;
47764;SDS011;33529;49.242;8.670;2023-08-12T13:51:09;4.47;;;3.30;;
47764;SDS011;33529;49.242;8.670;2023-08-12T13:53:35;3.85;;;3.00;;
47764;SDS011;33529;49.242;8.670;2023-08-12T13:56:02;4.10;;;3.17;;
47764;SDS011;33529;49.242;8.670;2023-08-12T13:58:30;4.00;;;2.60;;
47764;SDS011;33529;49.242;8.670;2023-08-12T14:00:57;4.93;;;3.00;;
47764;SDS011;33529;49.242;8.670;2023-08-12T14:03:24;3.92;;;2.90;;
47764;SDS011;33529;49.242;8.670;2023-08-12T14:05:51;5.45;;;3.55;;
47764;SDS011;33529;49.242;8.670;2023-08-12T14:08:18;4.70;;;3.17;;
47764;SDS011;33529;49.242;8.670;2023-08-12T14:10:47;5.63;;;3.00;;
47764;SDS011;33529;49.242;8.670;2023-08-12T14:13:14;5.13;;;3.38;;
47764;SDS011;33529;49.242;8.670;2023-08-12T14:15:41;4.45;;;3.10;;
47764;SDS011;33529;49.242;8.670;2023-08-12T14:18:08;6.05;;;4.13;;
47764;SDS011;33529;49.242;8.670;2023-08-12T14:20:35;5.25;;;4.00;;
47764;SDS011;33529;49.242;8.670;2023-08-12T14:23:02;7.15;;;3.90;;
47764;SDS011;33529;49.242;8.670;2023-08-12T14:25:29;7.57;;;4.15;;
47764;SDS011;33529;49.242;8.670;2023-08-12T14:27:56;6.25;;;4.10;;
47764;SDS011;33529;49.242;8.670;2023-08-12T14:30:23;6.68;;;4.47;;
47764;SDS011;33529;49.242;8.670;2023-08-12T14:32:54;7.10;;;4.55;;
47764;SDS011;33529;49.242;8.670;2023-08-12T14:35:21;6.78;;;4.80;;
47764;SDS011;33529;49.242;8.670;2023-08-12T14:37:48;6.35;;;4.25;;
47764;SDS011;33529;49.242;8.670;2023-08-12T14:40:15;6.85;;;5.07;;
47764;SDS011;33529;49.242;8.670;2023-08-12T14:42:42;11.90;;;6.68;;
47764;SDS011;33529;49.242;8.670;2023-08-12T14:45:09;11.32;;;6.95;;
47764;SDS011;33529;49.242;8.670;2023-08-12T14:47:36;11.35;;;7.07;;
47764;SDS011;33529;49.242;8.670;2023-08-12T14:50:03;11.23;;;8.02;;
47764;SDS011;33529;49.242;8.670;2023-08-12T14:52:31;10.68;;;7.30;;
47764;SDS011;33529;49.242;8.670;2023-08-12T14:54:58;9.38;;;7.68;;
47764;SDS011;33529;49.242;8.670;2023-08-12T14:57:24;9.02;;;7.30;;
47764;SDS011;33529;49.242;8.670;2023-08-12T14:59:51;10.20;;;7.60;;
47764;SDS011;33529;49.242;8.670;2023-08-12T15:02:19;8.30;;;7.30;;